logo
Search for airport 
image banner adimage banner adimage banner ad
image banner ad

WBGB - Bintulu

Located in Bintulu, Malaysia

ICAO - WBGB, IATA - BTU

Data provided by Airmate  

General information

Coordinates: N3°7'27" E113°1'11"
Elevation is 75 feet MSL.
 
View others Airports in Sarawak

Operational data

Special qualification required
Current time UTC:
Current local time:
Weather
METAR: WBGB 291300Z 09003KT 9999 FEW016 27/25 Q1012
TAF: TAF WBGB 291100Z 2912/3012 VRB03KT 9999 SCT016
View NOTAMs / SUP AIP / TFR affecting this airport [VIEW]
Communications frequencies: [VIEW]

Runways:

RWY identifierQFULength (ft)Width (ft)SurfaceLDA (ft)
17167°9006148ASP
35347°9006148ASP

Airport contact information

Address: Bintulu Malaysia

Satellite view of WBGB